Time;durP1;ratioP1;P1;durP2;ratioP2;P2;SDS_P1;SDS_P2;PMS_P1;PMS_P2;Temp;Humidity;BMP_temperature;BMP_pressure;BME280_temperature;BME280_humidity;BME280_pressure;Samples;Min_cycle;Max_cycle;Signal;HPM_P1;HPM_P2
2022/12/02 00:01:51;;;;;;;6.55;1.10;;;21.50;99.90;;;;;;5019890;28;20191;-83
2022/12/02 00:04:28;;;;;;;3.08;1.17;;;21.60;99.90;;;;;;5012127;28;20209;-84
2022/12/02 00:07:04;;;;;;;4.75;1.70;;;21.80;99.90;;;;;;5017961;28;20198;-88
2022/12/02 00:09:35;;;;;;;5.70;1.48;;;22.00;99.90;;;;;;5017796;28;20233;-84
2022/12/02 00:12:25;;;;;;;5.70;1.20;;;22.30;99.90;;;;;;5021174;28;20293;-82
2022/12/02 00:14:59;;;;;;;8.82;1.55;;;22.50;99.90;;;;;;5018602;28;20201;-84
2022/12/02 00:17:30;;;;;;;3.95;1.30;;;22.70;99.90;;;;;;5022093;28;20186;-85
2022/12/02 00:20:03;;;;;;;5.30;1.20;;;22.90;99.90;;;;;;5016088;28;20662;-83
2022/12/02 00:22:33;;;;;;;4.57;1.40;;;23.10;99.90;;;;;;5012072;28;20182;-81
2022/12/02 00:25:04;;;;;;;6.72;1.52;;;23.40;99.90;;;;;;5017803;28;20209;-83
2022/12/02 00:27:35;;;;;;;6.45;1.70;;;23.70;99.90;;;;;;5015583;28;20190;-88
2022/12/02 00:30:19;;;;;;;3.72;1.33;;;23.80;99.90;;;;;;5012080;28;20223;-85
2022/12/02 00:32:51;;;;;;;5.47;1.10;;;24.00;99.90;;;;;;5000879;28;20674;-82
2022/12/02 00:35:25;;;;;;;6.55;1.38;;;23.70;99.90;;;;;;5015644;28;20349;-82
2022/12/02 00:37:56;;;;;;;7.10;1.30;;;23.60;99.90;;;;;;5017761;28;20229;-83
2022/12/02 00:40:27;;;;;;;3.83;1.17;;;23.30;99.90;;;;;;5011759;28;20733;-84
2022/12/02 00:46:30;;;;;;;6.13;1.40;;;23.10;99.90;;;;;;5017661;28;20197;-81
2022/12/02 00:48:35;;;;;;;5.50;1.30;;;23.10;99.90;;;;;;5019653;28;20356;-83
2022/12/02 00:51:07;;;;;;;6.85;1.40;;;23.10;99.90;;;;;;5010437;28;20585;-82
2022/12/02 00:53:38;;;;;;;6.70;1.20;;;23.50;99.90;;;;;;5012991;28;20209;-84
2022/12/02 00:56:09;;;;;;;5.63;1.38;;;23.60;99.90;;;;;;5019263;28;20205;-84
2022/12/02 00:58:40;;;;;;;3.58;1.10;;;23.70;99.90;;;;;;5012751;28;20198;-85
2022/12/02 01:01:13;;;;;;;5.43;1.27;;;23.80;99.90;;;;;;5007541;28;20201;-86
2022/12/02 01:03:46;;;;;;;4.15;1.10;;;23.80;99.90;;;;;;5016047;28;20206;-83
2022/12/02 01:06:20;;;;;;;5.38;1.70;;;23.90;99.90;;;;;;5014956;28;20210;-90
2022/12/02 01:08:51;;;;;;;4.78;0.90;;;23.90;99.90;;;;;;5020963;28;20630;-83
2022/12/02 01:11:22;;;;;;;4.80;1.20;;;23.70;99.90;;;;;;5014762;28;20249;-84
2022/12/02 01:13:53;;;;;;;5.13;1.10;;;23.40;99.90;;;;;;5006645;28;20196;-84
2022/12/02 01:16:24;;;;;;;5.50;1.33;;;23.20;99.90;;;;;;5013101;28;20195;-83
2022/12/02 01:18:54;;;;;;;8.07;3.28;;;23.00;99.90;;;;;;5005180;28;20198;-83
2022/12/02 01:21:27;;;;;;;5.50;1.20;;;22.90;99.90;;;;;;5019348;28;20203;-83
2022/12/02 01:23:58;;;;;;;6.63;2.15;;;23.10;99.90;;;;;;5005449;28;20195;-83
2022/12/02 01:26:29;;;;;;;5.07;1.33;;;23.20;99.90;;;;;;5013892;28;20670;-81
2022/12/02 01:29:00;;;;;;;3.63;1.25;;;23.10;99.90;;;;;;5028404;28;20191;-84
2022/12/02 01:31:30;;;;;;;5.82;1.10;;;22.80;99.90;;;;;;5011935;28;20238;-84
2022/12/02 01:34:16;;;;;;;4.22;1.15;;;22.60;99.90;;;;;;5011841;28;20250;-90
2022/12/02 01:36:49;;;;;;;3.75;1.25;;;22.20;99.90;;;;;;5027496;28;20239;-84
2022/12/02 01:39:19;;;;;;;3.53;1.20;;;22.20;99.90;;;;;;5026119;28;20205;-84
2022/12/02 01:41:52;;;;;;;5.82;1.30;;;22.20;99.90;;;;;;5020782;28;20191;-87
2022/12/02 01:44:23;;;;;;;4.88;1.17;;;22.30;99.90;;;;;;5014010;28;20285;-85
2022/12/02 01:46:54;;;;;;;5.68;1.17;;;22.40;99.90;;;;;;5016138;28;20630;-85
2022/12/02 01:49:25;;;;;;;8.07;1.40;;;22.40;99.90;;;;;;5018105;28;20301;-88
2022/12/02 01:51:58;;;;;;;4.55;1.00;;;22.20;99.90;;;;;;5023983;28;20282;-85
2022/12/02 01:54:34;;;;;;;3.70;1.23;;;22.00;99.90;;;;;;5014757;28;20190;-82
2022/12/02 01:57:06;;;;;;;2.97;1.05;;;22.10;99.90;;;;;;5015741;28;20270;-81
2022/12/02 01:59:40;;;;;;;3.95;1.10;;;22.10;99.90;;;;;;5016241;28;20199;-82
2022/12/02 02:02:27;;;;;;;6.78;1.30;;;22.10;99.90;;;;;;5025737;28;20194;-82
2022/12/02 02:05:01;;;;;;;3.58;1.20;;;22.00;99.90;;;;;;5018962;28;20195;-86
2022/12/02 02:07:36;;;;;;;6.28;1.20;;;21.70;99.90;;;;;;5021272;28;20575;-85
2022/12/02 02:10:08;;;;;;;6.43;1.75;;;21.50;99.90;;;;;;5032156;28;20520;-83
2022/12/02 02:12:40;;;;;;;5.95;1.45;;;21.60;99.90;;;;;;5016182;28;20634;-87
2022/12/02 02:15:12;;;;;;;6.35;1.20;;;21.50;99.90;;;;;;5017276;28;20191;-86
2022/12/02 02:17:43;;;;;;;4.05;1.08;;;21.90;99.90;;;;;;5029194;28;20194;-84
2022/12/02 02:20:15;;;;;;;2.63;0.90;;;22.40;99.90;;;;;;5019880;28;20186;-90
2022/12/02 02:22:53;;;;;;;6.55;1.33;;;22.80;99.90;;;;;;5034482;28;20182;-80
2022/12/02 02:25:26;;;;;;;3.80;1.10;;;23.10;99.90;;;;;;5016001;28;20195;-83
2022/12/02 02:27:59;;;;;;;4.00;1.10;;;23.20;99.90;;;;;;5016219;28;20183;-92
2022/12/02 02:30:32;;;;;;;3.45;1.10;;;23.60;99.90;;;;;;5015111;28;20219;-87
2022/12/02 02:33:05;;;;;;;3.25;1.10;;;23.80;99.90;;;;;;5017035;28;20183;-87
2022/12/02 02:35:38;;;;;;;4.72;0.93;;;23.60;99.90;;;;;;5013963;28;20263;-84
2022/12/02 02:38:10;;;;;;;5.60;1.00;;;23.50;99.90;;;;;;5025692;28;20237;-84
2022/12/02 02:40:48;;;;;;;5.60;1.13;;;23.40;99.90;;;;;;5008127;28;20183;-85
2022/12/02 02:43:22;;;;;;;5.72;1.20;;;23.30;99.90;;;;;;5021260;28;20213;-83
2022/12/02 02:45:54;;;;;;;7.00;1.27;;;23.00;99.90;;;;;;5014862;28;20627;-83
2022/12/02 02:48:25;;;;;;;2.70;0.90;;;22.80;99.90;;;;;;5016062;28;20209;-84
2022/12/02 02:50:57;;;;;;;4.40;1.40;;;22.70;99.90;;;;;;5020860;28;20222;-88
2022/12/02 02:53:29;;;;;;;5.50;1.30;;;22.80;99.90;;;;;;5018378;28;20196;-84
2022/12/02 02:56:02;;;;;;;7.72;0.93;;;23.10;99.90;;;;;;5020529;28;20199;-88
2022/12/02 02:58:36;;;;;;;4.68;0.95;;;23.30;99.90;;;;;;5032135;28;20585;-85
2022/12/02 03:01:13;;;;;;;4.35;0.90;;;23.20;99.90;;;;;;5022007;28;20190;-86
2022/12/02 03:03:46;;;;;;;7.88;1.45;;;23.10;99.90;;;;;;5022488;28;20195;-85
2022/12/02 03:06:19;;;;;;;7.35;1.42;;;23.10;99.90;;;;;;5015038;28;20191;-85
2022/12/02 03:08:51;;;;;;;3.72;1.30;;;23.00;99.90;;;;;;5016454;28;20183;-85
2022/12/02 03:11:27;;;;;;;6.30;1.10;;;23.10;99.90;;;;;;5024661;28;20218;-87
2022/12/02 03:13:59;;;;;;;5.40;1.00;;;23.00;99.90;;;;;;5017372;28;20187;-86
2022/12/02 03:16:30;;;;;;;5.25;1.17;;;22.90;99.90;;;;;;5014569;28;20190;-83
2022/12/02 03:19:01;;;;;;;6.82;1.20;;;22.60;99.90;;;;;;5009998;28;20199;-83
2022/12/02 03:21:33;;;;;;;3.95;1.13;;;22.70;99.90;;;;;;5014856;28;20196;-84
2022/12/02 03:24:06;;;;;;;5.15;1.15;;;22.50;99.90;;;;;;5024633;28;20187;-84
2022/12/02 03:26:39;;;;;;;3.58;1.00;;;22.60;99.90;;;;;;5022897;28;20191;-83
2022/12/02 03:29:12;;;;;;;3.30;0.90;;;22.70;99.90;;;;;;5023336;28;20538;-83
2022/12/02 03:31:44;;;;;;;3.17;1.10;;;23.00;99.90;;;;;;5015419;28;20705;-82
2022/12/02 03:34:15;;;;;;;4.80;1.10;;;23.40;99.90;;;;;;5014803;28;20241;-83
2022/12/02 03:36:46;;;;;;;3.97;1.00;;;23.60;99.90;;;;;;5018071;28;20226;-84
2022/12/02 03:39:17;;;;;;;2.47;1.00;;;23.50;99.90;;;;;;5028179;28;20191;-85
2022/12/02 03:41:54;;;;;;;5.00;1.10;;;23.30;99.90;;;;;;5021016;28;20646;-82
2022/12/02 03:44:25;;;;;;;5.88;1.20;;;23.00;99.90;;;;;;5015552;28;20377;-83
2022/12/02 03:46:56;;;;;;;7.28;1.10;;;22.80;99.90;;;;;;5025904;28;20186;-82
2022/12/02 03:49:28;;;;;;;4.35;1.02;;;22.60;99.90;;;;;;5026089;28;20190;-84
2022/12/02 03:52:00;;;;;;;3.03;1.00;;;22.40;99.90;;;;;;5026177;28;20206;-83
2022/12/02 03:54:31;;;;;;;2.97;1.00;;;22.40;99.90;;;;;;5029207;28;20190;-86
2022/12/02 03:57:06;;;;;;;4.35;0.95;;;22.60;99.90;;;;;;5020804;28;20201;-85
2022/12/02 03:59:37;;;;;;;3.38;1.17;;;22.70;99.90;;;;;;5023175;28;20190;-84
2022/12/02 04:02:08;;;;;;;5.03;1.38;;;22.60;99.90;;;;;;5025276;28;20186;-84
2022/12/02 04:04:39;;;;;;;4.00;1.20;;;22.80;99.90;;;;;;5018952;28;20203;-81
2022/12/02 04:07:12;;;;;;;4.25;0.90;;;22.80;99.90;;;;;;5019414;28;20201;-88
2022/12/02 04:09:43;;;;;;;3.10;0.90;;;22.80;99.90;;;;;;5019692;28;20182;-83
2022/12/02 04:12:16;;;;;;;4.07;1.17;;;22.70;99.90;;;;;;5019626;28;20222;-85
2022/12/02 04:14:46;;;;;;;3.67;1.00;;;22.80;99.90;;;;;;5026820;28;20186;-82
2022/12/02 04:17:17;;;;;;;4.63;1.10;;;22.70;99.90;;;;;;5019293;28;20186;-83
2022/12/02 04:19:49;;;;;;;4.07;1.15;;;22.80;99.90;;;;;;5020750;28;20193;-86
2022/12/02 04:22:20;;;;;;;3.22;0.90;;;22.90;99.90;;;;;;5018989;28;20195;-83
2022/12/02 04:24:52;;;;;;;3.58;1.10;;;22.80;99.90;;;;;;5018590;28;20677;-85
2022/12/02 04:27:25;;;;;;;3.92;1.05;;;22.80;99.90;;;;;;5020140;28;20340;-81
2022/12/02 04:29:56;;;;;;;2.40;1.00;;;22.70;99.90;;;;;;5022297;28;20191;-81
2022/12/02 04:32:26;;;;;;;4.38;1.00;;;22.80;99.90;;;;;;5020200;28;20206;-88
2022/12/02 04:34:57;;;;;;;3.97;0.90;;;22.90;99.90;;;;;;5020544;28;20651;-86
2022/12/02 04:37:28;;;;;;;2.75;1.10;;;22.90;99.90;;;;;;5022836;28;20232;-85
2022/12/02 04:39:59;;;;;;;3.40;1.05;;;22.80;99.90;;;;;;5020611;28;20183;-89
2022/12/02 04:42:31;;;;;;;4.63;1.23;;;22.80;99.90;;;;;;5021593;28;20194;-84
2022/12/02 04:45:02;;;;;;;3.97;1.15;;;22.60;99.90;;;;;;5022077;28;20548;-82
2022/12/02 04:47:33;;;;;;;4.88;1.30;;;22.40;99.90;;;;;;5023224;28;20572;-84
2022/12/02 04:50:04;;;;;;;3.03;1.10;;;22.30;99.90;;;;;;5025308;28;20265;-83
2022/12/02 04:52:34;;;;;;;3.67;1.02;;;22.40;99.90;;;;;;5023305;28;20222;-82
2022/12/02 04:55:05;;;;;;;6.10;1.17;;;22.60;99.90;;;;;;5024881;28;20217;-84
2022/12/02 04:57:38;;;;;;;4.25;1.35;;;22.70;99.90;;;;;;5024988;28;20222;-82
2022/12/02 05:00:10;;;;;;;4.15;1.30;;;22.80;99.90;;;;;;5027247;28;20269;-87
2022/12/02 05:02:40;;;;;;;4.30;1.20;;;22.90;99.90;;;;;;5021240;28;20190;-83
2022/12/02 05:05:12;;;;;;;4.10;1.20;;;23.00;99.90;;;;;;5024433;28;20196;-83
2022/12/02 05:07:42;;;;;;;4.65;1.05;;;23.00;99.90;;;;;;5023398;28;20191;-84
2022/12/02 05:10:14;;;;;;;3.20;1.02;;;23.00;99.90;;;;;;5022582;28;20205;-83
2022/12/02 05:12:47;;;;;;;2.47;0.90;;;23.00;99.90;;;;;;5025118;28;20191;-84
2022/12/02 05:15:18;;;;;;;3.55;0.93;;;23.00;99.90;;;;;;5015893;28;20190;-85
2022/12/02 05:17:49;;;;;;;2.47;0.98;;;23.00;99.90;;;;;;5027353;28;20191;-86
2022/12/02 05:20:20;;;;;;;3.92;1.05;;;23.00;99.90;;;;;;5028693;28;20193;-83
2022/12/02 05:22:52;;;;;;;4.88;1.25;;;23.10;99.90;;;;;;5026496;28;20194;-85
2022/12/02 05:25:22;;;;;;;4.38;1.20;;;23.30;99.90;;;;;;5027205;28;20232;-84
2022/12/02 05:27:59;;;;;;;4.78;1.17;;;23.10;99.90;;;;;;5025361;28;20950;-88
2022/12/02 05:30:31;;;;;;;2.38;0.85;;;23.10;99.90;;;;;;5026527;28;20255;-82
2022/12/02 05:33:03;;;;;;;2.40;0.82;;;23.10;99.90;;;;;;5027334;28;20191;-87
2022/12/02 05:35:35;;;;;;;5.95;1.13;;;23.10;99.90;;;;;;5029787;28;20226;-84
2022/12/02 05:38:05;;;;;;;5.40;1.20;;;23.20;99.90;;;;;;5026337;28;20225;-83
2022/12/02 05:40:36;;;;;;;2.97;1.17;;;23.20;99.90;;;;;;5026887;28;20202;-88
2022/12/02 05:43:18;;;;;;;3.60;1.00;;;23.10;99.90;;;;;;5027075;28;20210;-87
2022/12/02 05:45:49;;;;;;;3.10;1.10;;;23.00;99.90;;;;;;5028878;28;20186;-83
2022/12/02 05:48:22;;;;;;;5.22;0.85;;;22.90;99.90;;;;;;5026216;28;20210;-83
2022/12/02 05:50:54;;;;;;;3.65;1.20;;;22.90;99.90;;;;;;5023367;28;20211;-83
2022/12/02 05:53:29;;;;;;;2.47;0.90;;;22.90;99.90;;;;;;5027761;28;20642;-83
2022/12/02 05:56:01;;;;;;;1.58;0.90;;;22.90;99.90;;;;;;5023524;28;20670;-81
2022/12/02 05:58:34;;;;;;;5.82;1.30;;;22.80;99.90;;;;;;5020159;28;21531;-84
2022/12/02 06:01:15;;;;;;;1.98;0.82;;;22.70;99.90;;;;;;5024541;28;20216;-84
2022/12/02 06:03:48;;;;;;;3.58;1.10;;;22.70;99.90;;;;;;5022260;28;20204;-80
2022/12/02 06:06:25;;;;;;;2.22;0.93;;;22.70;99.90;;;;;;5018816;28;20202;-88
2022/12/02 06:08:57;;;;;;;2.30;1.00;;;22.40;99.90;;;;;;5020950;28;20190;-86
2022/12/02 06:11:33;;;;;;;4.50;1.20;;;22.30;99.90;;;;;;5016785;28;20211;-83
2022/12/02 06:14:12;;;;;;;4.00;1.05;;;22.50;99.90;;;;;;5023724;28;20201;-83
2022/12/02 06:16:45;;;;;;;5.07;1.10;;;22.50;99.90;;;;;;5022737;28;20191;-85
2022/12/02 06:19:25;;;;;;;3.80;1.20;;;22.50;99.90;;;;;;5018368;28;20293;-82
2022/12/02 06:21:58;;;;;;;3.92;1.10;;;22.50;99.90;;;;;;5020071;28;20201;-83
2022/12/02 06:24:31;;;;;;;2.45;1.00;;;22.40;99.90;;;;;;5017796;28;20650;-82
2022/12/02 06:27:03;;;;;;;5.97;1.20;;;22.40;99.90;;;;;;5024375;28;20193;-86
2022/12/02 06:29:37;;;;;;;5.40;1.40;;;22.30;99.90;;;;;;5013449;28;20238;-83
2022/12/02 06:32:15;;;;;;;6.65;1.30;;;22.20;99.90;;;;;;5020277;28;20221;-83
2022/12/02 06:34:47;;;;;;;5.13;1.27;;;22.20;99.90;;;;;;5015869;28;20222;-82
2022/12/02 06:37:21;;;;;;;4.07;1.00;;;22.40;99.90;;;;;;5024689;28;20588;-83
2022/12/02 06:39:54;;;;;;;3.53;1.00;;;22.40;99.90;;;;;;5020127;28;20252;-84
2022/12/02 06:42:29;;;;;;;3.78;1.00;;;22.40;99.90;;;;;;5020495;28;20930;-84
2022/12/02 06:45:09;;;;;;;6.50;1.27;;;22.50;99.90;;;;;;5019016;28;20191;-83
2022/12/02 06:48:07;;;;;;;2.60;1.08;;;22.40;99.90;;;;;;5018264;28;20247;-84
2022/12/02 06:50:39;;;;;;;4.50;1.10;;;22.20;99.90;;;;;;5021597;28;20232;-85
2022/12/02 06:53:26;;;;;;;3.05;1.17;;;22.20;99.90;;;;;;5021736;28;20202;-86
2022/12/02 06:56:06;;;;;;;4.03;1.10;;;22.00;99.90;;;;;;5023652;28;20285;-83
2022/12/02 06:58:40;;;;;;;2.75;1.08;;;21.90;99.90;;;;;;5029248;28;20206;-83
2022/12/02 07:01:37;;;;;;;4.20;1.00;;;21.80;99.90;;;;;;5011992;28;20205;-83
2022/12/02 07:04:33;;;;;;;6.97;1.20;;;21.80;99.90;;;;;;5019353;28;20252;-89
2022/12/02 07:07:18;;;;;;;2.38;0.82;;;21.50;99.90;;;;;;5017943;28;20203;-84
2022/12/02 07:09:52;;;;;;;3.53;1.25;;;21.50;99.90;;;;;;5021635;28;20313;-87
2022/12/02 07:12:26;;;;;;;4.20;1.33;;;21.50;99.90;;;;;;5019760;28;20211;-86
2022/12/02 07:14:59;;;;;;;4.32;1.30;;;21.40;99.90;;;;;;5014078;28;20198;-83
2022/12/02 07:17:36;;;;;;;7.53;1.38;;;21.40;99.90;;;;;;5019555;28;20213;-86
2022/12/02 07:20:32;;;;;;;3.70;1.20;;;21.40;99.90;;;;;;5009570;28;20208;-83
2022/12/02 07:23:07;;;;;;;5.68;1.20;;;21.10;99.90;;;;;;5014891;28;20210;-82
2022/12/02 07:25:43;;;;;;;2.70;1.08;;;21.00;99.90;;;;;;5015197;28;20198;-82
2022/12/02 07:28:29;;;;;;;5.05;1.30;;;20.90;99.90;;;;;;5015291;28;20198;-82
2022/12/02 07:31:01;;;;;;;6.97;1.50;;;20.80;99.90;;;;;;5015860;28;20199;-81
2022/12/02 07:33:34;;;;;;;4.88;1.13;;;20.80;99.90;;;;;;5013745;28;20195;-84
2022/12/02 07:36:05;;;;;;;2.80;1.17;;;20.80;99.90;;;;;;5019351;28;20594;-82
2022/12/02 07:38:36;;;;;;;2.97;1.20;;;20.70;99.90;;;;;;5014964;28;20233;-83
2022/12/02 07:41:07;;;;;;;4.07;1.05;;;20.70;99.90;;;;;;5020074;28;20281;-85
2022/12/02 07:43:38;;;;;;;3.80;1.30;;;20.50;99.90;;;;;;5012389;28;20306;-83
2022/12/02 07:46:10;;;;;;;4.43;1.27;;;20.40;99.90;;;;;;5014237;28;20199;-84
2022/12/02 07:48:43;;;;;;;3.83;1.55;;;20.40;99.90;;;;;;5021322;28;20206;-83
2022/12/02 07:51:14;;;;;;;3.15;1.27;;;20.30;99.90;;;;;;5012157;28;20202;-83
2022/12/02 07:53:45;;;;;;;5.80;1.30;;;20.30;99.90;;;;;;5026939;28;20565;-84
2022/12/02 07:56:16;;;;;;;7.03;1.60;;;20.30;99.90;;;;;;5022372;28;20204;-84
2022/12/02 07:58:47;;;;;;;2.58;1.38;;;20.20;99.90;;;;;;5013682;28;20202;-84
2022/12/02 08:01:17;;;;;;;4.22;1.80;;;20.20;99.90;;;;;;5021565;28;20561;-83
2022/12/02 08:03:50;;;;;;;5.28;1.48;;;20.10;99.90;;;;;;5014506;28;20224;-84
2022/12/02 08:06:21;;;;;;;3.75;1.70;;;20.10;99.90;;;;;;5012764;28;20289;-83
2022/12/02 08:08:51;;;;;;;4.18;1.35;;;20.00;99.90;;;;;;5015095;28;20293;-84
2022/12/02 08:11:22;;;;;;;6.60;1.70;;;20.00;99.90;;;;;;5011525;28;20202;-82
2022/12/02 08:13:56;;;;;;;3.72;1.50;;;19.90;99.90;;;;;;5014228;28;20223;-82
2022/12/02 08:16:26;;;;;;;7.95;1.85;;;19.90;99.90;;;;;;5020743;28;20199;-83
2022/12/02 08:19:03;;;;;;;8.00;2.03;;;19.80;99.90;;;;;;5012856;28;20225;-87
2022/12/02 08:21:33;;;;;;;4.75;1.67;;;19.80;99.90;;;;;;5013537;28;20280;-83
2022/12/02 08:24:10;;;;;;;4.40;1.70;;;19.70;99.90;;;;;;5022159;28;20278;-83
2022/12/02 08:26:42;;;;;;;4.88;1.60;;;19.60;99.90;;;;;;5012566;28;20190;-82
2022/12/02 08:29:15;;;;;;;4.22;1.40;;;19.60;99.90;;;;;;5016653;28;20195;-83
2022/12/02 08:31:46;;;;;;;5.53;1.50;;;19.50;99.90;;;;;;5014216;28;20223;-85
2022/12/02 08:34:19;;;;;;;5.20;1.60;;;19.50;99.90;;;;;;5013675;28;20195;-82
2022/12/02 08:36:50;;;;;;;3.90;1.50;;;19.50;99.90;;;;;;5015357;28;20230;-82
2022/12/02 08:39:23;;;;;;;3.00;1.40;;;19.40;99.90;;;;;;5010595;28;20658;-82
2022/12/02 08:41:54;;;;;;;5.65;1.42;;;19.40;99.90;;;;;;5021558;28;20186;-82
2022/12/02 08:44:24;;;;;;;6.82;1.42;;;19.30;99.90;;;;;;5006144;28;20270;-81
2022/12/02 08:46:55;;;;;;;2.22;1.20;;;19.30;99.90;;;;;;5011503;28;20203;-81
2022/12/02 08:49:28;;;;;;;4.10;1.42;;;19.20;99.90;;;;;;5021387;28;20187;-82
2022/12/02 08:51:59;;;;;;;4.50;1.30;;;19.20;99.90;;;;;;5008471;28;20708;-82
2022/12/02 08:54:30;;;;;;;5.22;1.30;;;19.10;99.90;;;;;;5006304;28;20206;-83
2022/12/02 08:57:01;;;;;;;6.13;1.73;;;19.10;99.90;;;;;;5015266;28;20662;-82
2022/12/02 08:59:32;;;;;;;3.72;1.42;;;19.10;99.90;;;;;;5006044;28;20205;-82
2022/12/02 09:02:02;;;;;;;3.42;2.00;;;19.10;99.90;;;;;;5010141;28;20187;-81
2022/12/02 09:04:35;;;;;;;5.38;1.20;;;19.10;99.90;;;;;;5007205;28;20199;-81
2022/12/02 09:07:06;;;;;;;6.05;1.50;;;19.00;99.90;;;;;;5012393;28;20199;-81
2022/12/02 09:09:37;;;;;;;6.18;1.55;;;19.00;99.90;;;;;;5015884;28;20644;-81
2022/12/02 09:12:08;;;;;;;5.90;1.85;;;19.00;99.90;;;;;;5016354;28;20704;-82
2022/12/02 09:14:38;;;;;;;4.43;1.80;;;19.00;99.90;;;;;;5021011;28;20203;-81
2022/12/02 09:17:09;;;;;;;5.00;1.77;;;19.00;99.90;;;;;;5013440;28;20198;-82
2022/12/02 09:19:42;;;;;;;5.88;1.70;;;19.00;99.90;;;;;;5009326;28;20194;-81
2022/12/02 09:22:13;;;;;;;4.63;1.88;;;19.00;99.90;;;;;;5019589;28;20709;-81
2022/12/02 09:24:43;;;;;;;6.95;1.70;;;19.00;99.90;;;;;;5011540;28;20206;-84
2022/12/02 09:27:14;;;;;;;4.75;1.65;;;18.90;99.90;;;;;;5012015;28;20673;-82
2022/12/02 09:29:45;;;;;;;4.75;1.33;;;18.90;99.90;;;;;;5013775;28;20187;-82
2022/12/02 09:32:16;;;;;;;6.90;1.70;;;18.90;99.90;;;;;;5024709;28;20332;-81
2022/12/02 09:34:49;;;;;;;4.93;1.40;;;18.90;99.90;;;;;;5012267;28;20681;-85
2022/12/02 09:37:19;;;;;;;4.88;1.63;;;18.80;99.90;;;;;;5017827;28;20230;-81
2022/12/02 09:39:53;;;;;;;3.70;1.58;;;18.90;99.90;;;;;;5011581;28;20190;-81
2022/12/02 09:42:27;;;;;;;3.22;1.20;;;18.80;99.90;;;;;;5020628;28;20198;-82
2022/12/02 09:44:58;;;;;;;3.47;1.40;;;18.80;99.90;;;;;;5011606;28;20714;-82
2022/12/02 09:47:32;;;;;;;4.03;1.20;;;18.70;99.90;;;;;;5017661;28;20277;-82
2022/12/02 09:50:05;;;;;;;4.85;1.30;;;18.80;99.90;;;;;;5015174;28;20199;-82
2022/12/02 09:52:36;;;;;;;6.00;1.33;;;18.80;99.90;;;;;;5013327;28;20240;-82
2022/12/02 09:55:14;;;;;;;4.35;1.63;;;18.80;99.90;;;;;;5014247;28;20278;-82
2022/12/02 09:57:45;;;;;;;4.70;1.35;;;18.80;99.90;;;;;;5023689;28;20187;-86
2022/12/02 10:00:19;;;;;;;3.00;1.63;;;18.70;99.90;;;;;;5023687;28;20713;-82
2022/12/02 10:02:52;;;;;;;4.32;1.90;;;18.60;99.90;;;;;;5012064;28;20190;-82
2022/12/02 10:05:27;;;;;;;4.43;1.75;;;18.60;99.90;;;;;;5016582;28;20563;-81
2022/12/02 10:07:59;;;;;;;3.13;1.50;;;18.70;99.90;;;;;;5030629;28;20187;-81
2022/12/02 10:10:36;;;;;;;3.47;1.23;;;18.60;99.90;;;;;;5016459;28;20191;-81
2022/12/02 10:13:06;;;;;;;2.95;1.27;;;18.60;99.90;;;;;;5016708;28;20214;-81
2022/12/02 10:15:37;;;;;;;2.72;1.05;;;18.60;99.90;;;;;;5015278;28;20205;-81
2022/12/02 10:18:15;;;;;;;2.00;1.00;;;18.60;99.90;;;;;;5016120;28;20217;-81
2022/12/02 10:20:49;;;;;;;3.50;1.50;;;18.60;99.90;;;;;;5021773;28;20194;-81
2022/12/02 10:23:21;;;;;;;4.85;1.70;;;18.60;99.90;;;;;;5016141;28;20191;-80
2022/12/02 10:25:57;;;;;;;3.22;1.30;;;18.60;99.90;;;;;;5026524;28;20221;-80
2022/12/02 10:28:31;;;;;;;5.35;1.40;;;18.60;99.90;;;;;;5018607;28;20230;-81
2022/12/02 10:31:03;;;;;;;2.60;1.10;;;18.60;99.90;;;;;;5023461;28;20190;-81
2022/12/02 10:33:37;;;;;;;1.67;1.00;;;18.60;99.90;;;;;;5022426;28;20684;-81
2022/12/02 10:36:10;;;;;;;3.63;1.15;;;18.60;99.90;;;;;;5020734;28;20226;-81
2022/12/02 10:38:42;;;;;;;1.55;1.00;;;18.50;99.90;;;;;;5024094;28;20232;-82
2022/12/02 10:41:21;;;;;;;2.30;1.20;;;18.50;99.90;;;;;;5020916;28;20209;-82
2022/12/02 10:44:15;;;;;;;10.18;9.07;;;18.50;99.90;;;;;;5015334;28;20191;-81
2022/12/02 10:46:46;;;;;;;12.27;9.07;;;18.50;99.90;;;;;;5017702;28;20643;-82
2022/12/02 10:49:33;;;;;;;4.03;1.42;;;18.50;99.90;;;;;;5019063;28;20192;-82
2022/12/02 10:52:10;;;;;;;3.63;1.40;;;18.40;99.90;;;;;;5012493;28;20190;-81
2022/12/02 10:54:44;;;;;;;4.70;1.55;;;18.40;99.90;;;;;;5024916;28;20195;-81
2022/12/02 10:57:23;;;;;;;4.47;1.65;;;18.40;99.90;;;;;;5015402;28;20588;-80
2022/12/02 10:59:55;;;;;;;4.10;1.40;;;18.40;99.90;;;;;;5017922;28;20183;-81
2022/12/02 11:02:32;;;;;;;8.23;1.83;;;18.30;99.90;;;;;;5022664;28;20205;-81
2022/12/02 11:05:11;;;;;;;3.58;1.30;;;18.30;99.90;;;;;;5015325;28;20183;-81
2022/12/02 11:07:51;;;;;;;2.45;1.10;;;18.30;99.90;;;;;;5030056;28;20812;-81
2022/12/02 11:10:24;;;;;;;4.13;1.60;;;18.30;99.90;;;;;;5016635;28;20650;-81
2022/12/02 11:13:30;;;;;;;4.60;1.40;;;18.30;99.90;;;;;;5024752;28;20210;-81
2022/12/02 11:16:50;;;;;;;6.22;1.83;;;18.30;99.90;;;;;;5029186;28;20204;-81
2022/12/02 11:19:45;;;;;;;3.78;1.40;;;18.30;99.90;;;;;;4948363;28;20216;-81
2022/12/02 11:22:52;;;;;;;7.13;1.83;;;18.20;99.90;;;;;;5013830;28;20209;-81
2022/12/02 11:25:53;;;;;;;5.32;1.45;;;18.30;99.90;;;;;;5013336;28;20195;-81
2022/12/02 11:28:50;;;;;;;6.10;1.52;;;18.20;99.90;;;;;;4998007;28;20631;-81
2022/12/02 11:31:26;;;;;;;5.20;1.30;;;18.30;99.90;;;;;;5014884;28;20202;-81
2022/12/02 11:34:22;;;;;;;4.57;1.30;;;18.20;99.90;;;;;;5016646;28;20234;-81
2022/12/02 11:37:39;;;;;;;5.45;1.42;;;18.20;99.90;;;;;;5000383;28;20687;-81
2022/12/02 11:40:46;;;;;;;6.13;1.42;;;18.20;99.90;;;;;;5030478;28;20195;-81
2022/12/02 11:43:53;;;;;;;6.57;2.00;;;18.20;99.90;;;;;;5015320;28;20222;-81
2022/12/02 11:46:39;;;;;;;4.65;1.40;;;18.20;99.90;;;;;;5014211;28;20197;-81
2022/12/02 11:49:36;;;;;;;6.38;1.65;;;18.20;99.90;;;;;;5028858;28;20194;-81
2022/12/02 11:52:23;;;;;;;3.28;1.42;;;18.20;99.90;;;;;;5014630;28;20647;-81
2022/12/02 11:55:05;;;;;;;3.30;1.15;;;18.20;99.90;;;;;;5020696;28;20183;-81
2022/12/02 11:57:48;;;;;;;4.70;1.30;;;18.20;99.90;;;;;;5025694;28;20191;-81
2022/12/02 12:00:25;;;;;;;6.43;1.45;;;18.20;99.90;;;;;;5020415;28;20197;-81
2022/12/02 12:03:13;;;;;;;3.90;1.38;;;18.20;99.90;;;;;;5020915;28;20654;-81
2022/12/02 12:05:45;;;;;;;4.15;1.30;;;18.20;99.90;;;;;;5025214;28;20183;-81
2022/12/02 12:08:28;;;;;;;5.00;1.38;;;18.20;99.90;;;;;;5024580;28;20192;-81
2022/12/02 12:11:23;;;;;;;4.50;1.50;;;18.20;99.90;;;;;;5016675;28;20257;-81
2022/12/02 12:14:06;;;;;;;5.55;1.58;;;18.10;99.90;;;;;;5020193;28;20298;-81
2022/12/02 12:16:39;;;;;;;9.52;1.92;;;18.10;99.90;;;;;;5019453;28;20207;-81
2022/12/02 12:19:28;;;;;;;4.78;1.42;;;18.10;99.90;;;;;;5023711;28;20590;-81
2022/12/02 12:21:59;;;;;;;7.18;1.70;;;18.10;99.90;;;;;;5020566;28;20187;-81
2022/12/02 12:24:33;;;;;;;5.32;1.60;;;18.10;99.90;;;;;;5017047;28;20278;-81
2022/12/02 12:27:32;;;;;;;7.63;1.50;;;18.10;99.90;;;;;;5016861;28;20277;-81
2022/12/02 12:30:06;;;;;;;5.82;1.52;;;18.00;99.90;;;;;;5015508;28;20244;-81
2022/12/02 12:32:37;;;;;;;5.70;1.55;;;18.10;99.90;;;;;;5016819;28;20190;-81
2022/12/02 12:35:09;;;;;;;5.38;1.38;;;18.00;99.90;;;;;;5020562;28;20214;-82
2022/12/02 12:37:39;;;;;;;4.20;1.40;;;18.00;99.90;;;;;;5019262;28;20236;-81
2022/12/02 12:40:11;;;;;;;3.78;1.23;;;18.00;99.90;;;;;;5020602;28;20197;-81
2022/12/02 12:42:41;;;;;;;5.07;1.33;;;18.00;99.90;;;;;;5020126;28;20543;-81
2022/12/02 12:45:14;;;;;;;4.53;1.50;;;18.00;99.90;;;;;;5019136;28;20199;-81
2022/12/02 12:47:45;;;;;;;3.92;1.40;;;18.00;99.90;;;;;;5022684;28;20206;-81
2022/12/02 12:50:16;;;;;;;2.67;1.15;;;18.00;99.90;;;;;;5020691;28;20190;-81
2022/12/02 12:52:47;;;;;;;5.63;1.50;;;17.90;99.90;;;;;;5017858;28;20196;-81
2022/12/02 12:55:18;;;;;;;3.47;1.20;;;17.90;99.90;;;;;;5021631;28;20182;-81
2022/12/02 12:57:48;;;;;;;6.20;1.75;;;17.90;99.90;;;;;;5019489;28;20584;-81
2022/12/02 13:00:22;;;;;;;6.78;1.42;;;17.80;99.90;;;;;;5017346;28;20198;-81
2022/12/02 13:02:53;;;;;;;3.80;1.40;;;17.80;99.90;;;;;;5016601;28;20270;-81
2022/12/02 13:05:23;;;;;;;6.45;1.52;;;17.80;99.90;;;;;;5014581;28;20195;-81
2022/12/02 13:07:54;;;;;;;5.20;1.30;;;17.80;99.90;;;;;;5023226;28;20190;-81
2022/12/02 13:10:25;;;;;;;5.32;1.40;;;17.80;99.90;;;;;;5027338;28;20280;-81
2022/12/02 13:12:56;;;;;;;5.30;1.40;;;17.80;99.90;;;;;;5018847;28;20189;-81
2022/12/02 13:15:29;;;;;;;5.63;1.35;;;17.70;99.90;;;;;;5027049;28;20659;-81
2022/12/02 13:18:00;;;;;;;5.50;1.40;;;17.70;99.90;;;;;;5021297;28;20206;-81
2022/12/02 13:20:31;;;;;;;6.13;1.80;;;17.70;99.90;;;;;;5018063;28;20195;-80
2022/12/02 13:23:02;;;;;;;3.80;1.50;;;17.70;99.90;;;;;;5020272;28;20209;-81
2022/12/02 13:25:32;;;;;;;3.28;1.17;;;17.70;99.90;;;;;;5013788;28;20293;-81
2022/12/02 13:28:03;;;;;;;4.80;1.20;;;17.70;99.90;;;;;;5022586;28;20187;-80
2022/12/02 13:30:36;;;;;;;5.53;1.63;;;17.60;99.90;;;;;;5021852;28;20217;-81